sensor_id;sensor_type;location;lat;lon;timestamp;temperature;humidity
42095;DHT22;27753;55.724;37.612;2023-04-25T00:02:21;14.60;51.60
42095;DHT22;27753;55.724;37.612;2023-04-25T00:04:47;14.50;51.90
42095;DHT22;27753;55.724;37.612;2023-04-25T00:07:14;14.50;52.00
42095;DHT22;27753;55.724;37.612;2023-04-25T00:09:41;14.50;52.20
42095;DHT22;27753;55.724;37.612;2023-04-25T00:12:07;14.50;52.40
42095;DHT22;27753;55.724;37.612;2023-04-25T00:14:32;14.50;52.70
42095;DHT22;27753;55.724;37.612;2023-04-25T00:17:02;14.50;53.10
42095;DHT22;27753;55.724;37.612;2023-04-25T00:19:31;14.40;54.40
42095;DHT22;27753;55.724;37.612;2023-04-25T00:21:58;14.30;54.70
42095;DHT22;27753;55.724;37.612;2023-04-25T00:24:24;14.20;54.90
42095;DHT22;27753;55.724;37.612;2023-04-25T00:26:49;14.10;55.00
42095;DHT22;27753;55.724;37.612;2023-04-25T00:29:15;14.20;55.90
42095;DHT22;27753;55.724;37.612;2023-04-25T00:31:41;14.20;55.40
42095;DHT22;27753;55.724;37.612;2023-04-25T00:34:07;14.30;55.00
42095;DHT22;27753;55.724;37.612;2023-04-25T00:36:33;14.30;55.70
42095;DHT22;27753;55.724;37.612;2023-04-25T00:38:59;14.40;55.40
42095;DHT22;27753;55.724;37.612;2023-04-25T00:41:26;14.40;55.40
42095;DHT22;27753;55.724;37.612;2023-04-25T00:43:54;14.30;57.00
42095;DHT22;27753;55.724;37.612;2023-04-25T00:46:20;14.30;55.80
42095;DHT22;27753;55.724;37.612;2023-04-25T00:48:46;14.20;56.10
42095;DHT22;27753;55.724;37.612;2023-04-25T00:51:16;14.30;56.60
42095;DHT22;27753;55.724;37.612;2023-04-25T00:53:45;14.30;56.40
42095;DHT22;27753;55.724;37.612;2023-04-25T00:56:11;14.30;55.90
42095;DHT22;27753;55.724;37.612;2023-04-25T00:58:37;14.20;56.20
42095;DHT22;27753;55.724;37.612;2023-04-25T01:01:04;14.20;56.20
42095;DHT22;27753;55.724;37.612;2023-04-25T01:03:35;14.20;56.50
42095;DHT22;27753;55.724;37.612;2023-04-25T01:06:09;14.10;57.00
42095;DHT22;27753;55.724;37.612;2023-04-25T01:08:36;14.00;57.10
42095;DHT22;27753;55.724;37.612;2023-04-25T01:11:02;14.00;57.30
42095;DHT22;27753;55.724;37.612;2023-04-25T01:13:28;13.90;57.60
42095;DHT22;27753;55.724;37.612;2023-04-25T01:15:55;13.90;57.40
42095;DHT22;27753;55.724;37.612;2023-04-25T01:18:20;13.80;57.70
42095;DHT22;27753;55.724;37.612;2023-04-25T01:20:47;13.80;57.90
42095;DHT22;27753;55.724;37.612;2023-04-25T01:23:15;13.80;57.90
42095;DHT22;27753;55.724;37.612;2023-04-25T01:25:41;13.80;57.90
42095;DHT22;27753;55.724;37.612;2023-04-25T01:28:07;13.90;58.10
42095;DHT22;27753;55.724;37.612;2023-04-25T01:30:34;13.90;58.10
42095;DHT22;27753;55.724;37.612;2023-04-25T01:33:01;14.00;58.20
42095;DHT22;27753;55.724;37.612;2023-04-25T01:35:29;14.00;58.00
42095;DHT22;27753;55.724;37.612;2023-04-25T01:37:55;14.10;57.80
42095;DHT22;27753;55.724;37.612;2023-04-25T01:40:21;14.10;57.60
42095;DHT22;27753;55.724;37.612;2023-04-25T01:42:48;14.10;57.50
42095;DHT22;27753;55.724;37.612;2023-04-25T01:45:14;14.10;57.50
42095;DHT22;27753;55.724;37.612;2023-04-25T01:47:40;14.20;57.50
42095;DHT22;27753;55.724;37.612;2023-04-25T01:50:08;14.20;57.50
42095;DHT22;27753;55.724;37.612;2023-04-25T01:52:34;14.20;57.70
42095;DHT22;27753;55.724;37.612;2023-04-25T01:55:01;14.20;57.50
42095;DHT22;27753;55.724;37.612;2023-04-25T01:57:28;14.10;57.60
42095;DHT22;27753;55.724;37.612;2023-04-25T02:00:05;14.10;57.80
42095;DHT22;27753;55.724;37.612;2023-04-25T02:02:32;14.20;57.80
42095;DHT22;27753;55.724;37.612;2023-04-25T02:04:58;14.20;57.70
42095;DHT22;27753;55.724;37.612;2023-04-25T02:07:25;14.20;57.60
42095;DHT22;27753;55.724;37.612;2023-04-25T02:09:51;14.20;57.60
42095;DHT22;27753;55.724;37.612;2023-04-25T02:12:17;14.20;57.70
42095;DHT22;27753;55.724;37.612;2023-04-25T02:14:43;14.20;57.70
42095;DHT22;27753;55.724;37.612;2023-04-25T02:17:09;14.20;57.60
42095;DHT22;27753;55.724;37.612;2023-04-25T02:19:35;14.20;58.20
42095;DHT22;27753;55.724;37.612;2023-04-25T02:22:01;14.20;57.50
42095;DHT22;27753;55.724;37.612;2023-04-25T02:24:27;14.20;57.50
42095;DHT22;27753;55.724;37.612;2023-04-25T02:26:53;14.20;57.50
42095;DHT22;27753;55.724;37.612;2023-04-25T02:29:21;14.20;57.60
42095;DHT22;27753;55.724;37.612;2023-04-25T02:31:47;14.20;57.50
42095;DHT22;27753;55.724;37.612;2023-04-25T02:34:13;14.20;57.50
42095;DHT22;27753;55.724;37.612;2023-04-25T02:36:38;14.20;57.30
42095;DHT22;27753;55.724;37.612;2023-04-25T02:39:05;14.30;57.30
42095;DHT22;27753;55.724;37.612;2023-04-25T02:41:31;14.30;57.30
42095;DHT22;27753;55.724;37.612;2023-04-25T02:43:56;14.40;57.10
42095;DHT22;27753;55.724;37.612;2023-04-25T02:46:22;14.40;56.90
42095;DHT22;27753;55.724;37.612;2023-04-25T02:48:48;14.40;57.00
42095;DHT22;27753;55.724;37.612;2023-04-25T02:51:14;14.50;57.20
42095;DHT22;27753;55.724;37.612;2023-04-25T02:53:41;14.50;57.20
42095;DHT22;27753;55.724;37.612;2023-04-25T02:56:07;14.50;57.00
42095;DHT22;27753;55.724;37.612;2023-04-25T02:58:33;14.50;56.80
42095;DHT22;27753;55.724;37.612;2023-04-25T03:00:59;14.60;56.70
42095;DHT22;27753;55.724;37.612;2023-04-25T03:03:26;14.60;56.80
42095;DHT22;27753;55.724;37.612;2023-04-25T03:05:52;14.60;56.80
42095;DHT22;27753;55.724;37.612;2023-04-25T03:08:18;14.60;57.40
42095;DHT22;27753;55.724;37.612;2023-04-25T03:10:45;14.60;57.50
42095;DHT22;27753;55.724;37.612;2023-04-25T03:13:11;14.60;57.20
42095;DHT22;27753;55.724;37.612;2023-04-25T03:15:37;14.60;57.10
42095;DHT22;27753;55.724;37.612;2023-04-25T03:18:03;14.70;57.40
42095;DHT22;27753;55.724;37.612;2023-04-25T03:20:29;14.70;57.30
42095;DHT22;27753;55.724;37.612;2023-04-25T03:22:55;14.70;57.50
42095;DHT22;27753;55.724;37.612;2023-04-25T03:25:21;14.70;57.40
42095;DHT22;27753;55.724;37.612;2023-04-25T03:27:50;14.70;57.40
42095;DHT22;27753;55.724;37.612;2023-04-25T03:30:15;14.70;57.50
42095;DHT22;27753;55.724;37.612;2023-04-25T03:32:41;14.70;57.50
42095;DHT22;27753;55.724;37.612;2023-04-25T03:35:07;14.70;57.50
42095;DHT22;27753;55.724;37.612;2023-04-25T03:37:33;14.70;57.50
42095;DHT22;27753;55.724;37.612;2023-04-25T03:39:59;14.70;57.70
42095;DHT22;27753;55.724;37.612;2023-04-25T03:42:25;14.70;57.90
42095;DHT22;27753;55.724;37.612;2023-04-25T03:44:51;14.80;57.90
42095;DHT22;27753;55.724;37.612;2023-04-25T03:47:18;14.90;58.00
42095;DHT22;27753;55.724;37.612;2023-04-25T03:49:43;14.90;58.00
42095;DHT22;27753;55.724;37.612;2023-04-25T03:52:10;14.90;58.10
42095;DHT22;27753;55.724;37.612;2023-04-25T03:54:35;14.90;58.20
42095;DHT22;27753;55.724;37.612;2023-04-25T03:57:01;14.90;58.30
42095;DHT22;27753;55.724;37.612;2023-04-25T03:59:27;14.90;58.60
42095;DHT22;27753;55.724;37.612;2023-04-25T04:01:53;14.90;58.60
42095;DHT22;27753;55.724;37.612;2023-04-25T04:04:19;15.10;59.20
42095;DHT22;27753;55.724;37.612;2023-04-25T04:06:45;15.10;58.60
42095;DHT22;27753;55.724;37.612;2023-04-25T04:09:11;15.10;58.90
42095;DHT22;27753;55.724;37.612;2023-04-25T04:11:38;15.10;59.00
42095;DHT22;27753;55.724;37.612;2023-04-25T04:14:07;15.20;58.80
42095;DHT22;27753;55.724;37.612;2023-04-25T04:16:33;15.20;59.10
42095;DHT22;27753;55.724;37.612;2023-04-25T04:18:59;15.20;59.00
42095;DHT22;27753;55.724;37.612;2023-04-25T04:21:25;15.20;59.00
42095;DHT22;27753;55.724;37.612;2023-04-25T04:23:52;15.00;59.50
42095;DHT22;27753;55.724;37.612;2023-04-25T04:26:20;14.90;59.40
42095;DHT22;27753;55.724;37.612;2023-04-25T04:28:49;15.00;59.90
42095;DHT22;27753;55.724;37.612;2023-04-25T04:31:23;15.10;59.90
42095;DHT22;27753;55.724;37.612;2023-04-25T04:33:49;15.20;59.90
42095;DHT22;27753;55.724;37.612;2023-04-25T04:36:16;15.30;59.60
42095;DHT22;27753;55.724;37.612;2023-04-25T04:38:45;15.40;59.80
42095;DHT22;27753;55.724;37.612;2023-04-25T04:41:11;15.60;59.40
42095;DHT22;27753;55.724;37.612;2023-04-25T04:43:37;15.90;58.80
42095;DHT22;27753;55.724;37.612;2023-04-25T04:46:05;16.20;57.90
42095;DHT22;27753;55.724;37.612;2023-04-25T04:48:34;16.70;57.30
42095;DHT22;27753;55.724;37.612;2023-04-25T04:51:00;17.80;54.60
42095;DHT22;27753;55.724;37.612;2023-04-25T04:53:27;17.90;54.40
42095;DHT22;27753;55.724;37.612;2023-04-25T04:55:52;18.80;52.00
42095;DHT22;27753;55.724;37.612;2023-04-25T04:58:18;18.70;52.10
42095;DHT22;27753;55.724;37.612;2023-04-25T05:00:45;19.10;51.10
42095;DHT22;27753;55.724;37.612;2023-04-25T05:03:11;19.40;50.20
42095;DHT22;27753;55.724;37.612;2023-04-25T05:05:37;20.00;49.80
42095;DHT22;27753;55.724;37.612;2023-04-25T05:08:05;20.80;48.60
42095;DHT22;27753;55.724;37.612;2023-04-25T05:10:31;21.70;47.20
42095;DHT22;27753;55.724;37.612;2023-04-25T05:13:00;22.40;45.70
42095;DHT22;27753;55.724;37.612;2023-04-25T05:15:25;22.60;44.00
42095;DHT22;27753;55.724;37.612;2023-04-25T05:17:51;22.30;44.40
42095;DHT22;27753;55.724;37.612;2023-04-25T05:20:17;22.80;44.20
42095;DHT22;27753;55.724;37.612;2023-04-25T05:22:44;23.30;43.30
42095;DHT22;27753;55.724;37.612;2023-04-25T05:25:10;23.80;42.80
42095;DHT22;27753;55.724;37.612;2023-04-25T05:27:36;24.40;41.50
42095;DHT22;27753;55.724;37.612;2023-04-25T05:30:02;24.40;40.60
42095;DHT22;27753;55.724;37.612;2023-04-25T05:32:28;23.50;41.60
42095;DHT22;27753;55.724;37.612;2023-04-25T05:34:54;23.20;42.50
42095;DHT22;27753;55.724;37.612;2023-04-25T05:37:20;23.20;42.80
42095;DHT22;27753;55.724;37.612;2023-04-25T05:39:46;22.90;42.70
42095;DHT22;27753;55.724;37.612;2023-04-25T05:42:12;23.10;43.70
42095;DHT22;27753;55.724;37.612;2023-04-25T05:44:37;24.20;42.80
42095;DHT22;27753;55.724;37.612;2023-04-25T05:47:03;26.00;40.80
42095;DHT22;27753;55.724;37.612;2023-04-25T05:49:30;27.40;39.10
42095;DHT22;27753;55.724;37.612;2023-04-25T05:51:56;28.30;37.00
42095;DHT22;27753;55.724;37.612;2023-04-25T05:54:22;28.60;36.80
42095;DHT22;27753;55.724;37.612;2023-04-25T05:56:48;29.10;36.20
42095;DHT22;27753;55.724;37.612;2023-04-25T05:59:14;29.90;35.80
42095;DHT22;27753;55.724;37.612;2023-04-25T06:01:40;30.40;35.00
42095;DHT22;27753;55.724;37.612;2023-04-25T06:04:06;30.70;34.40
42095;DHT22;27753;55.724;37.612;2023-04-25T06:06:31;31.40;34.00
42095;DHT22;27753;55.724;37.612;2023-04-25T06:08:57;32.10;32.80
42095;DHT22;27753;55.724;37.612;2023-04-25T06:11:23;31.90;32.30
42095;DHT22;27753;55.724;37.612;2023-04-25T06:13:49;31.80;32.20
42095;DHT22;27753;55.724;37.612;2023-04-25T06:16:15;31.20;32.30
42095;DHT22;27753;55.724;37.612;2023-04-25T06:18:41;31.30;32.90
42095;DHT22;27753;55.724;37.612;2023-04-25T06:21:07;31.50;32.00
42095;DHT22;27753;55.724;37.612;2023-04-25T06:23:32;30.90;33.00
42095;DHT22;27753;55.724;37.612;2023-04-25T06:25:58;31.10;32.10
42095;DHT22;27753;55.724;37.612;2023-04-25T06:28:24;31.70;31.90
42095;DHT22;27753;55.724;37.612;2023-04-25T06:30:50;32.40;31.40
42095;DHT22;27753;55.724;37.612;2023-04-25T06:33:16;32.70;30.90
42095;DHT22;27753;55.724;37.612;2023-04-25T06:35:42;32.70;30.60
42095;DHT22;27753;55.724;37.612;2023-04-25T06:38:08;33.00;30.80
42095;DHT22;27753;55.724;37.612;2023-04-25T06:40:34;33.70;31.10
42095;DHT22;27753;55.724;37.612;2023-04-25T06:43:00;34.20;29.90
42095;DHT22;27753;55.724;37.612;2023-04-25T06:45:27;34.40;29.60
42095;DHT22;27753;55.724;37.612;2023-04-25T06:47:53;34.90;29.60
42095;DHT22;27753;55.724;37.612;2023-04-25T06:50:19;35.30;29.00
42095;DHT22;27753;55.724;37.612;2023-04-25T06:52:45;35.50;28.70
42095;DHT22;27753;55.724;37.612;2023-04-25T06:55:11;35.60;28.80
42095;DHT22;27753;55.724;37.612;2023-04-25T06:57:36;36.20;28.50
42095;DHT22;27753;55.724;37.612;2023-04-25T07:00:03;36.50;27.90
42095;DHT22;27753;55.724;37.612;2023-04-25T07:02:31;36.00;27.70
42095;DHT22;27753;55.724;37.612;2023-04-25T07:04:56;35.80;28.10
42095;DHT22;27753;55.724;37.612;2023-04-25T07:07:25;36.10;28.40
42095;DHT22;27753;55.724;37.612;2023-04-25T07:09:51;36.60;28.40
42095;DHT22;27753;55.724;37.612;2023-04-25T07:12:17;36.70;28.20
42095;DHT22;27753;55.724;37.612;2023-04-25T07:14:43;37.10;28.10
42095;DHT22;27753;55.724;37.612;2023-04-25T07:17:08;37.20;27.90
42095;DHT22;27753;55.724;37.612;2023-04-25T07:19:34;36.20;28.00
42095;DHT22;27753;55.724;37.612;2023-04-25T07:22:00;36.30;28.40
42095;DHT22;27753;55.724;37.612;2023-04-25T07:24:26;36.60;28.20
42095;DHT22;27753;55.724;37.612;2023-04-25T07:26:52;37.40;28.40
42095;DHT22;27753;55.724;37.612;2023-04-25T07:29:18;37.90;27.40
42095;DHT22;27753;55.724;37.612;2023-04-25T07:31:43;38.00;27.60
42095;DHT22;27753;55.724;37.612;2023-04-25T07:34:09;37.50;26.90
42095;DHT22;27753;55.724;37.612;2023-04-25T07:36:35;37.30;27.20
42095;DHT22;27753;55.724;37.612;2023-04-25T07:39:01;36.90;27.70
42095;DHT22;27753;55.724;37.612;2023-04-25T07:41:27;37.20;27.90
42095;DHT22;27753;55.724;37.612;2023-04-25T07:43:53;37.60;27.30
42095;DHT22;27753;55.724;37.612;2023-04-25T07:46:18;38.00;27.50
42095;DHT22;27753;55.724;37.612;2023-04-25T07:48:44;37.90;27.20
42095;DHT22;27753;55.724;37.612;2023-04-25T07:51:10;37.70;27.20
42095;DHT22;27753;55.724;37.612;2023-04-25T07:53:36;37.90;27.50
42095;DHT22;27753;55.724;37.612;2023-04-25T07:56:03;38.20;27.20
42095;DHT22;27753;55.724;37.612;2023-04-25T07:58:29;38.40;27.50
42095;DHT22;27753;55.724;37.612;2023-04-25T08:00:55;38.20;27.00
42095;DHT22;27753;55.724;37.612;2023-04-25T08:03:20;38.20;27.50
42095;DHT22;27753;55.724;37.612;2023-04-25T08:05:46;38.00;27.10
42095;DHT22;27753;55.724;37.612;2023-04-25T08:08:12;37.00;27.60
42095;DHT22;27753;55.724;37.612;2023-04-25T08:10:38;36.60;27.90
42095;DHT22;27753;55.724;37.612;2023-04-25T08:13:04;35.70;28.10
42095;DHT22;27753;55.724;37.612;2023-04-25T08:15:32;33.20;28.70
42095;DHT22;27753;55.724;37.612;2023-04-25T08:17:58;30.30;30.40
42095;DHT22;27753;55.724;37.612;2023-04-25T08:20:25;28.70;32.60
42095;DHT22;27753;55.724;37.612;2023-04-25T08:22:51;27.80;34.20
42095;DHT22;27753;55.724;37.612;2023-04-25T08:25:28;28.40;34.70
42095;DHT22;27753;55.724;37.612;2023-04-25T08:27:54;30.70;32.90
42095;DHT22;27753;55.724;37.612;2023-04-25T08:30:21;32.80;31.00
42095;DHT22;27753;55.724;37.612;2023-04-25T08:32:47;34.30;29.90
42095;DHT22;27753;55.724;37.612;2023-04-25T08:35:13;34.60;29.00
42095;DHT22;27753;55.724;37.612;2023-04-25T08:37:39;33.30;29.40
42095;DHT22;27753;55.724;37.612;2023-04-25T08:40:05;31.60;30.80
42095;DHT22;27753;55.724;37.612;2023-04-25T08:42:33;31.10;31.40
42095;DHT22;27753;55.724;37.612;2023-04-25T08:45:02;31.60;31.20
42095;DHT22;27753;55.724;37.612;2023-04-25T08:47:33;32.00;30.50
42095;DHT22;27753;55.724;37.612;2023-04-25T08:50:01;31.80;30.80
42095;DHT22;27753;55.724;37.612;2023-04-25T08:52:32;31.60;30.70
42095;DHT22;27753;55.724;37.612;2023-04-25T08:55:01;30.70;30.90
42095;DHT22;27753;55.724;37.612;2023-04-25T08:57:29;30.10;31.70
42095;DHT22;27753;55.724;37.612;2023-04-25T08:59:57;30.10;31.90
42095;DHT22;27753;55.724;37.612;2023-04-25T09:02:24;30.50;31.30
42095;DHT22;27753;55.724;37.612;2023-04-25T09:04:50;30.80;30.60
42095;DHT22;27753;55.724;37.612;2023-04-25T09:07:16;30.80;30.80
42095;DHT22;27753;55.724;37.612;2023-04-25T09:09:46;31.40;29.30
42095;DHT22;27753;55.724;37.612;2023-04-25T09:12:12;31.10;28.90
42095;DHT22;27753;55.724;37.612;2023-04-25T09:14:38;30.80;29.00
42095;DHT22;27753;55.724;37.612;2023-04-25T09:17:05;30.20;29.30
42095;DHT22;27753;55.724;37.612;2023-04-25T09:19:35;29.10;30.00
42095;DHT22;27753;55.724;37.612;2023-04-25T09:22:04;29.20;30.10
42095;DHT22;27753;55.724;37.612;2023-04-25T09:24:34;29.60;29.60
42095;DHT22;27753;55.724;37.612;2023-04-25T09:27:03;29.60;30.00
42095;DHT22;27753;55.724;37.612;2023-04-25T09:29:35;29.80;30.30
42095;DHT22;27753;55.724;37.612;2023-04-25T09:32:20;30.80;30.40
42095;DHT22;27753;55.724;37.612;2023-04-25T09:34:48;32.30;29.50
42095;DHT22;27753;55.724;37.612;2023-04-25T09:37:27;33.70;29.00
42095;DHT22;27753;55.724;37.612;2023-04-25T09:40:03;34.40;28.50
42095;DHT22;27753;55.724;37.612;2023-04-25T09:42:31;35.70;27.80
42095;DHT22;27753;55.724;37.612;2023-04-25T09:45:00;36.30;27.50
42095;DHT22;27753;55.724;37.612;2023-04-25T09:47:29;37.30;27.40
42095;DHT22;27753;55.724;37.612;2023-04-25T09:49:56;37.70;26.70
42095;DHT22;27753;55.724;37.612;2023-04-25T09:52:22;37.80;27.40
42095;DHT22;27753;55.724;37.612;2023-04-25T09:54:49;38.10;27.50
42095;DHT22;27753;55.724;37.612;2023-04-25T09:57:18;38.20;26.40
42095;DHT22;27753;55.724;37.612;2023-04-25T09:59:52;37.20;26.00
42095;DHT22;27753;55.724;37.612;2023-04-25T10:02:23;35.70;26.80
42095;DHT22;27753;55.724;37.612;2023-04-25T10:04:51;34.90;27.30
42095;DHT22;27753;55.724;37.612;2023-04-25T10:07:20;33.60;27.80
42095;DHT22;27753;55.724;37.612;2023-04-25T10:09:49;32.20;28.60
42095;DHT22;27753;55.724;37.612;2023-04-25T10:12:17;31.20;29.30
42095;DHT22;27753;55.724;37.612;2023-04-25T10:14:44;31.30;29.90
42095;DHT22;27753;55.724;37.612;2023-04-25T10:17:11;32.10;29.30
42095;DHT22;27753;55.724;37.612;2023-04-25T10:19:37;33.30;29.20
42095;DHT22;27753;55.724;37.612;2023-04-25T10:22:11;33.60;27.90
42095;DHT22;27753;55.724;37.612;2023-04-25T10:24:38;32.20;28.50
42095;DHT22;27753;55.724;37.612;2023-04-25T10:29:32;30.40;29.50
42095;DHT22;27753;55.724;37.612;2023-04-25T10:31:57;28.00;31.60
42095;DHT22;27753;55.724;37.612;2023-04-25T10:34:37;26.90;32.40
42095;DHT22;27753;55.724;37.612;2023-04-25T10:37:04;26.00;32.80
42095;DHT22;27753;55.724;37.612;2023-04-25T10:39:30;25.40;33.80
42095;DHT22;27753;55.724;37.612;2023-04-25T10:41:57;24.60;34.10
42095;DHT22;27753;55.724;37.612;2023-04-25T10:44:27;23.70;35.90
42095;DHT22;27753;55.724;37.612;2023-04-25T10:46:58;23.10;36.50
42095;DHT22;27753;55.724;37.612;2023-04-25T10:49:36;22.70;37.70
42095;DHT22;27753;55.724;37.612;2023-04-25T10:52:13;22.70;38.30
42095;DHT22;27753;55.724;37.612;2023-04-25T10:54:46;22.70;38.20
42095;DHT22;27753;55.724;37.612;2023-04-25T10:57:39;22.80;38.30
42095;DHT22;27753;55.724;37.612;2023-04-25T11:02:32;22.10;39.90
42095;DHT22;27753;55.724;37.612;2023-04-25T11:05:02;22.00;39.40
42095;DHT22;27753;55.724;37.612;2023-04-25T11:07:58;22.10;39.50
42095;DHT22;27753;55.724;37.612;2023-04-25T11:10:29;22.20;38.50
42095;DHT22;27753;55.724;37.612;2023-04-25T11:12:56;22.30;39.00
42095;DHT22;27753;55.724;37.612;2023-04-25T11:15:22;22.30;38.70
42095;DHT22;27753;55.724;37.612;2023-04-25T11:17:50;22.30;39.00
42095;DHT22;27753;55.724;37.612;2023-04-25T11:20:16;22.20;39.00
42095;DHT22;27753;55.724;37.612;2023-04-25T11:22:44;21.90;39.40
42095;DHT22;27753;55.724;37.612;2023-04-25T11:25:13;21.90;39.50
42095;DHT22;27753;55.724;37.612;2023-04-25T11:27:50;22.00;39.60
42095;DHT22;27753;55.724;37.612;2023-04-25T11:30:17;22.00;39.50
42095;DHT22;27753;55.724;37.612;2023-04-25T11:32:43;21.80;40.20
42095;DHT22;27753;55.724;37.612;2023-04-25T11:35:10;21.90;40.20
42095;DHT22;27753;55.724;37.612;2023-04-25T11:37:38;21.90;39.90
42095;DHT22;27753;55.724;37.612;2023-04-25T11:40:05;21.90;40.10
42095;DHT22;27753;55.724;37.612;2023-04-25T11:42:44;22.00;39.70
42095;DHT22;27753;55.724;37.612;2023-04-25T11:45:10;21.90;39.70
42095;DHT22;27753;55.724;37.612;2023-04-25T11:47:36;21.80;40.00
42095;DHT22;27753;55.724;37.612;2023-04-25T11:50:06;21.70;40.30
42095;DHT22;27753;55.724;37.612;2023-04-25T11:52:41;21.80;40.20
42095;DHT22;27753;55.724;37.612;2023-04-25T11:55:09;21.80;40.70
42095;DHT22;27753;55.724;37.612;2023-04-25T11:57:38;21.80;40.70
42095;DHT22;27753;55.724;37.612;2023-04-25T12:27:18;21.60;40.10
42095;DHT22;27753;55.724;37.612;2023-04-25T12:29:54;21.20;42.10
42095;DHT22;27753;55.724;37.612;2023-04-25T12:32:21;21.10;42.40
42095;DHT22;27753;55.724;37.612;2023-04-25T12:34:47;21.00;41.90
42095;DHT22;27753;55.724;37.612;2023-04-25T12:37:13;21.00;42.10
42095;DHT22;27753;55.724;37.612;2023-04-25T12:39:39;21.10;42.60
42095;DHT22;27753;55.724;37.612;2023-04-25T12:42:05;21.10;43.00
42095;DHT22;27753;55.724;37.612;2023-04-25T12:44:33;21.20;42.70
42095;DHT22;27753;55.724;37.612;2023-04-25T12:46:59;21.00;42.50
42095;DHT22;27753;55.724;37.612;2023-04-25T12:49:25;21.00;42.60
42095;DHT22;27753;55.724;37.612;2023-04-25T12:51:51;21.20;43.00
42095;DHT22;27753;55.724;37.612;2023-04-25T12:54:17;21.30;42.30
42095;DHT22;27753;55.724;37.612;2023-04-25T12:56:43;21.10;42.50
42095;DHT22;27753;55.724;37.612;2023-04-25T12:59:09;21.20;43.00
42095;DHT22;27753;55.724;37.612;2023-04-25T13:01:35;21.40;43.20
42095;DHT22;27753;55.724;37.612;2023-04-25T13:04:01;21.50;43.10
42095;DHT22;27753;55.724;37.612;2023-04-25T13:06:27;21.60;42.70
42095;DHT22;27753;55.724;37.612;2023-04-25T13:08:55;21.70;42.20
42095;DHT22;27753;55.724;37.612;2023-04-25T13:11:21;21.80;42.00
42095;DHT22;27753;55.724;37.612;2023-04-25T13:13:47;21.80;41.80
42095;DHT22;27753;55.724;37.612;2023-04-25T13:16:13;21.80;41.70
42095;DHT22;27753;55.724;37.612;2023-04-25T13:18:42;21.70;42.10
42095;DHT22;27753;55.724;37.612;2023-04-25T13:21:09;21.60;42.40
42095;DHT22;27753;55.724;37.612;2023-04-25T13:23:36;21.50;42.30
42095;DHT22;27753;55.724;37.612;2023-04-25T13:26:03;21.50;42.10
42095;DHT22;27753;55.724;37.612;2023-04-25T13:28:28;21.40;42.00
42095;DHT22;27753;55.724;37.612;2023-04-25T13:30:54;21.30;42.20
42095;DHT22;27753;55.724;37.612;2023-04-25T13:33:21;21.30;42.60
42095;DHT22;27753;55.724;37.612;2023-04-25T13:35:48;21.20;42.60
42095;DHT22;27753;55.724;37.612;2023-04-25T13:38:25;21.20;42.60
42095;DHT22;27753;55.724;37.612;2023-04-25T13:40:51;21.10;42.90
42095;DHT22;27753;55.724;37.612;2023-04-25T13:43:20;21.00;43.00
42095;DHT22;27753;55.724;37.612;2023-04-25T13:45:50;21.10;43.10
42095;DHT22;27753;55.724;37.612;2023-04-25T13:48:17;21.00;43.20
42095;DHT22;27753;55.724;37.612;2023-04-25T13:50:43;20.90;43.40
42095;DHT22;27753;55.724;37.612;2023-04-25T13:53:09;20.80;43.40
42095;DHT22;27753;55.724;37.612;2023-04-25T13:55:36;20.80;43.30
42095;DHT22;27753;55.724;37.612;2023-04-25T13:58:02;20.80;42.60
42095;DHT22;27753;55.724;37.612;2023-04-25T14:00:34;20.70;43.00
42095;DHT22;27753;55.724;37.612;2023-04-25T14:03:00;20.80;42.60
42095;DHT22;27753;55.724;37.612;2023-04-25T14:05:26;21.00;42.40
42095;DHT22;27753;55.724;37.612;2023-04-25T14:07:52;21.40;42.30
42095;DHT22;27753;55.724;37.612;2023-04-25T14:10:17;22.50;41.00
42095;DHT22;27753;55.724;37.612;2023-04-25T14:12:43;23.30;39.70
42095;DHT22;27753;55.724;37.612;2023-04-25T14:15:09;24.20;38.60
42095;DHT22;27753;55.724;37.612;2023-04-25T14:17:36;24.80;37.00
42095;DHT22;27753;55.724;37.612;2023-04-25T14:20:03;24.90;36.40
42095;DHT22;27753;55.724;37.612;2023-04-25T14:22:31;24.70;35.80
42095;DHT22;27753;55.724;37.612;2023-04-25T14:24:57;24.10;35.80
42095;DHT22;27753;55.724;37.612;2023-04-25T14:27:23;23.40;36.60
42095;DHT22;27753;55.724;37.612;2023-04-25T14:29:49;22.80;37.40
42095;DHT22;27753;55.724;37.612;2023-04-25T14:32:15;22.30;38.50
42095;DHT22;27753;55.724;37.612;2023-04-25T14:34:41;21.90;39.10
42095;DHT22;27753;55.724;37.612;2023-04-25T14:37:06;21.50;39.60
42095;DHT22;27753;55.724;37.612;2023-04-25T14:39:32;21.20;40.20
42095;DHT22;27753;55.724;37.612;2023-04-25T14:41:58;21.00;40.70
42095;DHT22;27753;55.724;37.612;2023-04-25T14:44:24;20.90;41.00
42095;DHT22;27753;55.724;37.612;2023-04-25T14:46:50;20.70;41.30
42095;DHT22;27753;55.724;37.612;2023-04-25T14:49:17;20.60;41.80
42095;DHT22;27753;55.724;37.612;2023-04-25T14:51:43;20.40;42.20
42095;DHT22;27753;55.724;37.612;2023-04-25T14:54:09;20.30;42.40
42095;DHT22;27753;55.724;37.612;2023-04-25T14:56:36;20.20;42.70
42095;DHT22;27753;55.724;37.612;2023-04-25T14:59:02;20.20;42.40
42095;DHT22;27753;55.724;37.612;2023-04-25T15:01:28;20.10;43.20
42095;DHT22;27753;55.724;37.612;2023-04-25T15:03:54;20.10;43.30
42095;DHT22;27753;55.724;37.612;2023-04-25T15:06:19;20.10;43.60
42095;DHT22;27753;55.724;37.612;2023-04-25T15:08:45;20.10;44.30
42095;DHT22;27753;55.724;37.612;2023-04-25T15:11:11;20.10;44.00
42095;DHT22;27753;55.724;37.612;2023-04-25T15:13:37;20.10;44.30
42095;DHT22;27753;55.724;37.612;2023-04-25T15:16:03;20.00;44.40
42095;DHT22;27753;55.724;37.612;2023-04-25T15:18:29;20.00;44.60
42095;DHT22;27753;55.724;37.612;2023-04-25T15:20:55;19.90;44.50
42095;DHT22;27753;55.724;37.612;2023-04-25T15:23:22;19.80;44.50
42095;DHT22;27753;55.724;37.612;2023-04-25T15:25:50;19.70;44.80
42095;DHT22;27753;55.724;37.612;2023-04-25T15:28:17;19.70;45.00
42095;DHT22;27753;55.724;37.612;2023-04-25T15:30:44;19.60;45.00
42095;DHT22;27753;55.724;37.612;2023-04-25T15:33:10;19.50;45.00
42095;DHT22;27753;55.724;37.612;2023-04-25T15:35:36;19.50;45.00
42095;DHT22;27753;55.724;37.612;2023-04-25T15:38:02;19.50;44.90
42095;DHT22;27753;55.724;37.612;2023-04-25T15:40:28;19.40;45.00
42095;DHT22;27753;55.724;37.612;2023-04-25T15:42:54;19.30;45.00
42095;DHT22;27753;55.724;37.612;2023-04-25T15:47:50;19.20;44.50
42095;DHT22;27753;55.724;37.612;2023-04-25T15:50:18;19.20;45.10